Time;durP1;ratioP1;P1;durP2;ratioP2;P2;SDS_P1;SDS_P2;PMS_P1;PMS_P2;Temp;Humidity;BMP_temperature;BMP_pressure;BME280_temperature;BME280_humidity;BME280_pressure;Samples;Min_cycle;Max_cycle;Signal;HPM_P1;HPM_P2
2021/03/28 00:01:01;;;;;;;8.50;5.30;;;;;;;;;;4995442;28;20215;-78
2021/03/28 00:03:36;;;;;;;9.43;5.97;;;;;;;;;;4996616;28;23038;-78
2021/03/28 00:06:15;;;;;;;10.20;6.07;;;;;;;;;;4997460;28;20246;-78
2021/03/28 00:08:43;;;;;;;9.90;5.93;;;;;;;;;;5005818;28;20183;-78
2021/03/28 00:11:20;;;;;;;9.10;6.15;;;;;;;;;;4998487;28;20223;-78
2021/03/28 00:13:54;;;;;;;10.35;5.57;;;;;;;;;;5014197;28;20238;-78
2021/03/28 00:16:22;;;;;;;8.98;5.00;;;;;;;;;;5000769;28;20195;-78
2021/03/28 00:19:02;;;;;;;13.23;5.75;;;;;;;;;;5001163;28;20242;-78
2021/03/28 00:21:46;;;;;;;8.43;4.93;;;;;;;;;;4996893;28;20235;-78
2021/03/28 00:24:12;;;;;;;9.45;4.95;;;;;;;;;;5017676;28;20558;-79
2021/03/28 00:26:40;;;;;;;9.45;5.65;;;;;;;;;;5007043;28;20207;-79
2021/03/28 00:29:09;;;;;;;12.68;6.00;;;;;;;;;;5011776;28;20234;-78
2021/03/28 00:31:38;;;;;;;11.85;5.45;;;;;;;;;;5003445;28;20204;-78
2021/03/28 00:34:07;;;;;;;11.07;5.35;;;;;;;;;;5003823;28;20183;-78
2021/03/28 00:36:37;;;;;;;8.75;4.97;;;;;;;;;;5001543;28;20201;-78
2021/03/28 00:39:06;;;;;;;11.57;5.43;;;;;;;;;;5011314;28;20210;-80
2021/03/28 00:41:40;;;;;;;11.75;6.10;;;;;;;;;;5002544;28;20203;-79
2021/03/28 00:44:20;;;;;;;8.13;4.63;;;;;;;;;;5013441;28;20182;-78
2021/03/28 00:46:54;;;;;;;9.05;4.85;;;;;;;;;;5004356;28;20195;-78
2021/03/28 00:49:25;;;;;;;8.57;4.72;;;;;;;;;;5000070;28;20717;-78
2021/03/28 00:51:55;;;;;;;9.05;4.20;;;;;;;;;;4999061;28;20202;-78
2021/03/28 00:54:26;;;;;;;13.43;4.53;;;;;;;;;;5003467;28;20247;-78
2021/03/28 00:56:56;;;;;;;8.48;3.85;;;;;;;;;;5003052;28;20652;-79
2021/03/28 00:59:25;;;;;;;9.00;4.13;;;;;;;;;;5010328;28;20321;-80
2021/03/28 01:02:03;;;;;;;8.00;4.82;;;;;;;;;;5010115;28;20197;-79
2021/03/28 01:04:34;;;;;;;9.63;4.63;;;;;;;;;;5003578;28;20175;-78
2021/03/28 01:07:12;;;;;;;5.07;3.58;;;;;;;;;;5005654;28;20194;-78
2021/03/28 01:09:56;;;;;;;5.40;3.88;;;;;;;;;;5010336;28;20179;-78
2021/03/28 01:12:41;;;;;;;7.90;4.45;;;;;;;;;;5007982;28;20223;-78
2021/03/28 01:15:26;;;;;;;12.20;3.63;;;;;;;;;;5005090;28;20266;-78
2021/03/28 01:18:02;;;;;;;10.25;4.20;;;;;;;;;;5012842;28;20187;-78
2021/03/28 01:20:41;;;;;;;9.13;3.80;;;;;;;;;;5008458;28;20231;-78
2021/03/28 01:23:10;;;;;;;7.97;4.75;;;;;;;;;;5027685;28;20166;-78
2021/03/28 01:25:44;;;;;;;4.30;3.13;;;;;;;;;;5015179;28;20175;-78
2021/03/28 01:28:22;;;;;;;9.27;4.35;;;;;;;;;;5000655;28;20184;-79
2021/03/28 01:31:01;;;;;;;7.57;3.05;;;;;;;;;;4999367;28;20558;-78
2021/03/28 01:33:30;;;;;;;4.63;2.70;;;;;;;;;;5010751;28;20194;-78
2021/03/28 01:36:02;;;;;;;4.97;2.95;;;;;;;;;;5002010;28;20234;-78
2021/03/28 01:38:45;;;;;;;3.65;2.75;;;;;;;;;;5005528;28;20213;-78
2021/03/28 01:41:13;;;;;;;5.93;3.03;;;;;;;;;;5012045;28;20256;-78
2021/03/28 01:43:45;;;;;;;5.65;2.83;;;;;;;;;;5017061;28;20171;-78
2021/03/28 01:46:29;;;;;;;4.78;3.30;;;;;;;;;;5005753;28;20209;-78
2021/03/28 01:48:56;;;;;;;5.45;2.85;;;;;;;;;;5005711;28;20186;-78
2021/03/28 01:51:26;;;;;;;4.90;2.42;;;;;;;;;;5008009;28;20196;-78
2021/03/28 01:54:02;;;;;;;7.55;2.60;;;;;;;;;;5015009;28;20183;-78
2021/03/28 01:56:28;;;;;;;8.70;2.75;;;;;;;;;;5008054;28;20696;-78
2021/03/28 01:59:19;;;;;;;6.13;2.70;;;;;;;;;;5009135;28;20178;-78
2021/03/28 02:01:51;;;;;;;5.57;3.28;;;;;;;;;;5018565;28;20480;-78
2021/03/28 02:04:24;;;;;;;4.95;2.78;;;;;;;;;;5002950;28;20202;-78
2021/03/28 02:07:09;;;;;;;3.42;2.10;;;;;;;;;;4999803;28;20199;-78
2021/03/28 02:09:54;;;;;;;5.25;2.70;;;;;;;;;;5009517;28;20685;-78
2021/03/28 02:12:28;;;;;;;5.50;2.42;;;;;;;;;;5014773;28;20234;-79
2021/03/28 02:15:27;;;;;;;5.93;2.30;;;;;;;;;;5001811;28;20185;-80
2021/03/28 02:17:56;;;;;;;3.95;1.95;;;;;;;;;;5000684;28;20222;-78
2021/03/28 02:20:22;;;;;;;3.38;2.00;;;;;;;;;;4985028;28;20207;-79
2021/03/28 02:23:09;;;;;;;3.27;2.57;;;;;;;;;;5010500;28;20803;-79
2021/03/28 02:25:38;;;;;;;4.95;3.28;;;;;;;;;;4998478;28;20427;-79
2021/03/28 02:28:19;;;;;;;3.80;2.50;;;;;;;;;;5006798;28;20187;-78
2021/03/28 02:30:52;;;;;;;6.65;2.55;;;;;;;;;;5007285;28;20191;-78
2021/03/28 02:33:22;;;;;;;3.97;2.40;;;;;;;;;;4991272;28;20217;-79
2021/03/28 02:35:48;;;;;;;4.38;2.20;;;;;;;;;;4992674;28;20210;-79
2021/03/28 02:38:22;;;;;;;3.20;2.00;;;;;;;;;;4991245;28;20711;-80
2021/03/28 02:41:03;;;;;;;3.58;2.25;;;;;;;;;;5009048;28;20464;-80
2021/03/28 02:43:46;;;;;;;5.55;3.00;;;;;;;;;;5001420;28;20195;-79
2021/03/28 02:46:36;;;;;;;6.60;2.60;;;;;;;;;;5003636;28;20845;-79
2021/03/28 02:49:16;;;;;;;6.97;2.20;;;;;;;;;;5006509;28;20211;-79
2021/03/28 02:51:51;;;;;;;8.95;4.60;;;;;;;;;;5002952;28;20187;-78
2021/03/28 02:54:23;;;;;;;4.32;1.98;;;;;;;;;;5004137;28;20285;-79
2021/03/28 02:57:04;;;;;;;8.48;2.95;;;;;;;;;;5000377;28;20198;-80
2021/03/28 02:59:53;;;;;;;4.22;2.70;;;;;;;;;;4996902;28;20194;-79
2021/03/28 03:02:38;;;;;;;4.55;2.75;;;;;;;;;;5001476;28;20190;-79
2021/03/28 03:05:07;;;;;;;3.67;2.60;;;;;;;;;;5015134;28;20202;-78
2021/03/28 03:07:45;;;;;;;7.13;3.10;;;;;;;;;;5000604;28;20540;-78
2021/03/28 03:10:30;;;;;;;7.72;3.33;;;;;;;;;;5003879;28;20191;-78
2021/03/28 03:13:08;;;;;;;8.13;3.50;;;;;;;;;;5005387;28;20206;-78
2021/03/28 03:16:01;;;;;;;3.55;2.47;;;;;;;;;;4998768;28;20182;-78
2021/03/28 03:18:33;;;;;;;5.70;2.50;;;;;;;;;;4984120;28;20510;-78
2021/03/28 03:21:04;;;;;;;2.85;2.28;;;;;;;;;;4992020;28;20250;-79
2021/03/28 03:23:49;;;;;;;3.53;2.22;;;;;;;;;;4994725;28;20199;-79
2021/03/28 03:26:34;;;;;;;6.00;2.58;;;;;;;;;;5008992;28;20178;-79
2021/03/28 03:29:00;;;;;;;2.67;2.40;;;;;;;;;;4984893;28;20203;-81
2021/03/28 03:31:44;;;;;;;6.93;2.50;;;;;;;;;;4986668;28;20221;-80
2021/03/28 03:34:19;;;;;;;3.42;1.98;;;;;;;;;;4986919;28;20182;-80
2021/03/28 03:36:48;;;;;;;3.10;2.20;;;;;;;;;;5002969;28;20210;-79
2021/03/28 03:39:14;;;;;;;6.70;2.00;;;;;;;;;;4987495;28;20190;-79
2021/03/28 03:41:51;;;;;;;3.85;2.85;;;;;;;;;;4987867;28;20629;-79
2021/03/28 03:44:27;;;;;;;7.93;2.55;;;;;;;;;;5004212;28;20187;-79
2021/03/28 03:47:02;;;;;;;5.70;2.35;;;;;;;;;;5004041;28;20202;-80
2021/03/28 03:49:47;;;;;;;7.43;2.45;;;;;;;;;;4998271;28;20194;-81
2021/03/28 03:52:23;;;;;;;3.15;2.38;;;;;;;;;;5007857;28;20213;-79
2021/03/28 03:55:02;;;;;;;6.47;2.53;;;;;;;;;;5010052;28;20218;-79
2021/03/28 03:57:54;;;;;;;5.85;2.47;;;;;;;;;;5010547;28;20205;-79
2021/03/28 04:00:29;;;;;;;5.82;2.25;;;;;;;;;;4996160;28;20211;-79
2021/03/28 04:03:16;;;;;;;4.75;2.40;;;;;;;;;;5015170;28;20193;-79
2021/03/28 04:05:54;;;;;;;3.55;2.10;;;;;;;;;;5013083;28;20218;-79
2021/03/28 04:08:39;;;;;;;3.47;2.20;;;;;;;;;;5009660;28;20210;-79
2021/03/28 04:11:05;;;;;;;3.92;3.10;;;;;;;;;;4997419;28;20215;-78
2021/03/28 04:13:39;;;;;;;3.72;1.92;;;;;;;;;;5001673;28;20240;-80
2021/03/28 04:16:18;;;;;;;4.28;1.80;;;;;;;;;;5003594;28;20191;-79
2021/03/28 04:18:52;;;;;;;4.07;2.25;;;;;;;;;;5000898;28;20187;-79
2021/03/28 04:21:32;;;;;;;6.95;2.90;;;;;;;;;;5004116;28;20203;-80
2021/03/28 04:24:19;;;;;;;5.55;2.80;;;;;;;;;;5019312;28;20183;-80
2021/03/28 04:27:04;;;;;;;3.88;2.28;;;;;;;;;;5012532;28;20602;-80
2021/03/28 04:29:30;;;;;;;9.43;2.35;;;;;;;;;;5009947;28;20186;-80
2021/03/28 04:32:11;;;;;;;3.80;2.70;;;;;;;;;;5011515;28;20201;-80
2021/03/28 04:34:52;;;;;;;4.93;2.17;;;;;;;;;;5003243;28;20198;-80
2021/03/28 04:37:24;;;;;;;7.00;2.65;;;;;;;;;;5005979;28;20190;-79
2021/03/28 04:40:09;;;;;;;7.35;3.13;;;;;;;;;;5002030;28;20184;-79
2021/03/28 04:42:50;;;;;;;5.60;2.05;;;;;;;;;;5008974;28;20524;-78
2021/03/28 04:45:22;;;;;;;4.40;2.72;;;;;;;;;;4994693;28;20589;-79
2021/03/28 04:47:57;;;;;;;5.15;2.67;;;;;;;;;;5027722;28;20729;-80
2021/03/28 04:50:30;;;;;;;5.03;2.40;;;;;;;;;;4999766;28;20186;-79
2021/03/28 04:53:26;;;;;;;6.47;3.00;;;;;;;;;;5001653;28;20664;-80
2021/03/28 04:56:07;;;;;;;7.53;2.53;;;;;;;;;;5016583;28;20191;-78
2021/03/28 04:58:36;;;;;;;4.53;2.35;;;;;;;;;;4996060;28;20407;-79
2021/03/28 05:01:02;;;;;;;5.13;2.28;;;;;;;;;;5000076;28;20202;-80
2021/03/28 05:03:51;;;;;;;5.93;2.57;;;;;;;;;;5002626;28;20554;-80
2021/03/28 05:06:35;;;;;;;7.03;2.65;;;;;;;;;;4999408;28;20435;-80
2021/03/28 05:09:26;;;;;;;4.78;3.22;;;;;;;;;;5010699;28;20190;-80
2021/03/28 05:12:18;;;;;;;3.63;2.33;;;;;;;;;;5019887;28;20641;-78
2021/03/28 05:14:56;;;;;;;3.67;2.35;;;;;;;;;;5010611;28;20215;-80
2021/03/28 05:17:22;;;;;;;4.35;2.63;;;;;;;;;;5009010;28;20186;-79
2021/03/28 05:19:55;;;;;;;7.50;2.43;;;;;;;;;;5008740;28;20182;-79
2021/03/28 05:22:40;;;;;;;4.50;2.95;;;;;;;;;;5001202;28;20456;-79
2021/03/28 05:25:26;;;;;;;6.85;2.80;;;;;;;;;;5000842;28;20187;-80
2021/03/28 05:28:15;;;;;;;4.80;2.17;;;;;;;;;;5003575;28;20314;-79
2021/03/28 05:30:59;;;;;;;3.28;2.70;;;;;;;;;;4963422;28;20232;-80
2021/03/28 05:33:37;;;;;;;6.43;3.50;;;;;;;;;;4963752;29;20267;-81
2021/03/28 05:36:14;;;;;;;7.63;2.90;;;;;;;;;;4963426;28;20200;-79
2021/03/28 05:38:40;;;;;;;6.85;4.10;;;;;;;;;;4959533;28;20263;-78
2021/03/28 05:41:15;;;;;;;6.35;2.42;;;;;;;;;;4964306;28;20243;-78
2021/03/28 05:43:50;;;;;;;7.30;2.85;;;;;;;;;;4959253;28;20595;-79
2021/03/28 05:46:34;;;;;;;3.75;2.17;;;;;;;;;;4963024;28;20203;-79
2021/03/28 05:49:00;;;;;;;6.20;2.92;;;;;;;;;;4962995;28;20188;-79
2021/03/28 05:51:28;;;;;;;5.70;2.07;;;;;;;;;;4963195;28;20204;-79
2021/03/28 05:54:06;;;;;;;3.83;2.58;;;;;;;;;;4962849;28;20499;-79
2021/03/28 05:57:07;;;;;;;5.60;2.50;;;;;;;;;;4962832;28;20200;-79
2021/03/28 05:59:52;;;;;;;9.10;3.45;;;;;;;;;;4961888;28;20220;-80
2021/03/28 06:02:28;;;;;;;7.75;2.80;;;;;;;;;;4961811;28;20224;-79
2021/03/28 06:05:13;;;;;;;3.10;1.73;;;;;;;;;;4963090;29;20200;-79
2021/03/28 06:07:57;;;;;;;3.78;2.78;;;;;;;;;;4965719;28;20684;-79
2021/03/28 06:10:47;;;;;;;2.95;2.50;;;;;;;;;;4990052;28;20188;-79
2021/03/28 06:13:16;;;;;;;3.45;2.28;;;;;;;;;;5001952;28;20591;-80
2021/03/28 06:15:42;;;;;;;4.57;2.65;;;;;;;;;;4999108;28;20184;-79
2021/03/28 06:18:27;;;;;;;4.33;2.50;;;;;;;;;;5018606;28;20198;-78
2021/03/28 06:21:00;;;;;;;10.45;2.88;;;;;;;;;;5011840;28;20533;-78
2021/03/28 06:23:48;;;;;;;4.85;2.70;;;;;;;;;;5008947;28;20194;-79
2021/03/28 06:26:38;;;;;;;9.55;3.75;;;;;;;;;;5011863;28;20171;-79
2021/03/28 06:29:16;;;;;;;7.32;3.25;;;;;;;;;;5021273;28;20178;-80
2021/03/28 06:31:55;;;;;;;8.23;3.33;;;;;;;;;;5017485;28;20208;-80
2021/03/28 06:34:24;;;;;;;6.05;2.90;;;;;;;;;;5004225;28;20194;-79
2021/03/28 06:37:00;;;;;;;8.27;3.15;;;;;;;;;;5004270;28;20200;-80
2021/03/28 06:39:46;;;;;;;4.32;2.53;;;;;;;;;;5005612;28;20189;-79
2021/03/28 06:42:31;;;;;;;7.28;3.22;;;;;;;;;;5028576;28;20573;-78
2021/03/28 06:45:01;;;;;;;9.43;2.90;;;;;;;;;;5026108;28;20203;-79
2021/03/28 06:47:46;;;;;;;9.60;3.05;;;;;;;;;;5006916;28;20198;-78
2021/03/28 06:50:18;;;;;;;7.90;3.08;;;;;;;;;;5000494;28;20187;-78
2021/03/28 06:52:53;;;;;;;6.93;3.42;;;;;;;;;;5013534;28;20194;-78
2021/03/28 06:55:39;;;;;;;5.72;3.30;;;;;;;;;;4996999;28;20714;-78
2021/03/28 06:58:36;;;;;;;5.97;2.30;;;;;;;;;;4999294;28;20228;-78
2021/03/28 07:01:15;;;;;;;8.43;3.30;;;;;;;;;;5002618;28;20290;-78
2021/03/28 07:03:50;;;;;;;8.45;3.08;;;;;;;;;;5005492;28;20782;-78
2021/03/28 07:06:35;;;;;;;8.43;2.50;;;;;;;;;;5002180;28;20525;-78
2021/03/28 07:09:18;;;;;;;4.38;3.42;;;;;;;;;;5009028;28;20196;-78
2021/03/28 07:12:02;;;;;;;4.43;2.85;;;;;;;;;;5015398;28;20272;-78
2021/03/28 07:14:47;;;;;;;10.48;3.22;;;;;;;;;;4998503;28;20254;-78
2021/03/28 07:17:32;;;;;;;6.00;2.63;;;;;;;;;;5010854;28;20176;-78
2021/03/28 07:20:09;;;;;;;5.28;2.35;;;;;;;;;;5001025;28;20174;-78
2021/03/28 07:22:44;;;;;;;7.13;2.60;;;;;;;;;;4997492;28;20182;-79
2021/03/28 07:25:14;;;;;;;6.25;3.38;;;;;;;;;;5004541;28;20208;-80
2021/03/28 07:27:55;;;;;;;3.75;2.10;;;;;;;;;;5001500;28;20187;-80
2021/03/28 07:30:40;;;;;;;9.05;3.30;;;;;;;;;;4989457;28;20276;-81
2021/03/28 07:33:24;;;;;;;4.82;2.40;;;;;;;;;;5009665;28;20273;-82
2021/03/28 07:36:11;;;;;;;11.15;2.92;;;;;;;;;;4999762;28;21774;-80
2021/03/28 07:38:46;;;;;;;5.80;2.30;;;;;;;;;;5012456;28;20279;-79
2021/03/28 07:41:15;;;;;;;10.07;2.70;;;;;;;;;;4987434;28;20214;-79
2021/03/28 07:44:09;;;;;;;5.05;2.72;;;;;;;;;;5009204;28;20670;-79
2021/03/28 07:46:49;;;;;;;2.10;1.70;;;;;;;;;;5015316;28;20215;-81
2021/03/28 07:49:18;;;;;;;3.58;1.70;;;;;;;;;;4998901;28;20212;-80
2021/03/28 07:51:54;;;;;;;7.63;2.70;;;;;;;;;;4997969;28;20195;-80
2021/03/28 07:54:30;;;;;;;6.88;2.47;;;;;;;;;;4999306;28;20190;-81
2021/03/28 07:57:19;;;;;;;7.57;1.95;;;;;;;;;;5001346;28;20325;-80
2021/03/28 07:59:51;;;;;;;6.93;1.95;;;;;;;;;;5000194;28;20290;-80
2021/03/28 08:02:20;;;;;;;5.30;1.52;;;;;;;;;;4992038;28;20244;-82
2021/03/28 08:05:05;;;;;;;5.95;1.92;;;;;;;;;;5025170;28;20501;-81
2021/03/28 08:07:51;;;;;;;8.93;2.20;;;;;;;;;;5003179;28;20193;-80
2021/03/28 08:10:24;;;;;;;6.65;2.83;;;;;;;;;;4995122;28;20206;-81
2021/03/28 08:13:09;;;;;;;5.60;2.08;;;;;;;;;;4996424;28;20243;-80
2021/03/28 08:15:54;;;;;;;6.50;2.28;;;;;;;;;;4998566;28;20184;-77
2021/03/28 08:18:39;;;;;;;4.63;2.05;;;;;;;;;;4991840;28;20187;-81
2021/03/28 08:21:14;;;;;;;5.50;1.70;;;;;;;;;;4998459;28;20211;-78
2021/03/28 08:23:40;;;;;;;8.70;2.10;;;;;;;;;;5015454;28;20214;-81
2021/03/28 08:26:18;;;;;;;6.47;2.00;;;;;;;;;;5010916;28;20239;-80
2021/03/28 08:28:53;;;;;;;6.43;1.80;;;;;;;;;;5003988;28;20422;-80
2021/03/28 08:31:25;;;;;;;6.30;1.95;;;;;;;;;;4996859;28;20252;-81
2021/03/28 08:34:09;;;;;;;6.25;2.30;;;;;;;;;;5002067;28;20199;-80
2021/03/28 08:36:35;;;;;;;5.93;2.05;;;;;;;;;;5003572;28;20195;-81
2021/03/28 08:39:07;;;;;;;11.23;2.20;;;;;;;;;;5016795;28;20221;-78
2021/03/28 08:41:36;;;;;;;3.58;2.15;;;;;;;;;;5000453;28;20494;-81
2021/03/28 08:44:05;;;;;;;7.45;2.20;;;;;;;;;;4996271;28;20198;-82
2021/03/28 08:46:40;;;;;;;6.65;1.80;;;;;;;;;;5004654;28;20184;-80
2021/03/28 08:49:12;;;;;;;4.95;2.03;;;;;;;;;;5000050;28;20183;-79
2021/03/28 08:51:51;;;;;;;5.78;1.88;;;;;;;;;;5000971;28;20195;-81
2021/03/28 08:54:31;;;;;;;5.47;2.65;;;;;;;;;;4994831;28;20183;-82
2021/03/28 08:57:06;;;;;;;5.18;2.10;;;;;;;;;;5013951;28;20754;-80
2021/03/28 08:59:52;;;;;;;4.70;2.28;;;;;;;;;;5010923;28;20187;-81
2021/03/28 09:02:18;;;;;;;4.47;2.40;;;;;;;;;;5028213;28;20579;-82
2021/03/28 09:04:52;;;;;;;8.65;2.00;;;;;;;;;;5009211;28;20261;-82
2021/03/28 09:07:24;;;;;;;4.05;1.95;;;;;;;;;;5005527;28;20190;-81
2021/03/28 09:09:58;;;;;;;3.28;1.65;;;;;;;;;;5006878;28;20194;-82
2021/03/28 09:12:27;;;;;;;4.32;1.40;;;;;;;;;;5009094;28;20646;-81
2021/03/28 09:15:09;;;;;;;5.55;1.80;;;;;;;;;;5015407;28;20619;-80
2021/03/28 09:17:38;;;;;;;10.10;2.15;;;;;;;;;;5025193;28;20187;-81
2021/03/28 09:20:10;;;;;;;5.05;1.70;;;;;;;;;;5002257;28;20230;-80
2021/03/28 09:22:55;;;;;;;6.00;1.60;;;;;;;;;;5022050;28;20178;-80
2021/03/28 09:25:29;;;;;;;3.05;1.92;;;;;;;;;;5005447;28;20186;-80
2021/03/28 09:28:13;;;;;;;4.07;1.52;;;;;;;;;;5004300;28;20197;-83
2021/03/28 09:30:55;;;;;;;3.47;1.30;;;;;;;;;;5004690;28;20269;-77
2021/03/28 09:33:21;;;;;;;4.63;1.55;;;;;;;;;;4993511;28;20183;-79
2021/03/28 09:35:56;;;;;;;5.15;1.90;;;;;;;;;;5026672;28;20229;-78
2021/03/28 09:38:31;;;;;;;4.05;1.55;;;;;;;;;;5008698;28;20436;-81
2021/03/28 09:41:01;;;;;;;8.27;1.63;;;;;;;;;;5010305;28;20205;-80
2021/03/28 09:43:30;;;;;;;4.32;1.90;;;;;;;;;;4995629;28;20187;-85
2021/03/28 09:45:56;;;;;;;7.07;1.73;;;;;;;;;;4999627;28;20191;-77
2021/03/28 09:48:41;;;;;;;7.23;1.80;;;;;;;;;;5008505;28;20183;-82
2021/03/28 09:51:19;;;;;;;4.70;1.23;;;;;;;;;;5013277;28;20857;-84
2021/03/28 09:53:56;;;;;;;6.85;2.42;;;;;;;;;;5024341;28;20254;-79
2021/03/28 09:56:39;;;;;;;7.53;2.40;;;;;;;;;;4998364;28;20179;-79
2021/03/28 09:59:06;;;;;;;7.13;1.95;;;;;;;;;;5016986;28;20175;-83
2021/03/28 10:01:32;;;;;;;2.17;1.50;;;;;;;;;;4994564;28;20210;-81
2021/03/28 10:04:07;;;;;;;6.20;1.93;;;;;;;;;;4998881;28;20187;-80
2021/03/28 10:06:34;;;;;;;5.97;1.60;;;;;;;;;;4999251;28;20447;-79
2021/03/28 10:09:03;;;;;;;5.20;1.73;;;;;;;;;;5014887;28;20211;-80
2021/03/28 10:11:58;;;;;;;4.43;1.65;;;;;;;;;;4995429;28;20549;-81
2021/03/28 10:14:43;;;;;;;3.80;1.67;;;;;;;;;;4999803;28;20230;-80
2021/03/28 10:17:20;;;;;;;1.40;1.20;;;;;;;;;;5027228;28;20217;-80
2021/03/28 10:19:47;;;;;;;2.40;1.27;;;;;;;;;;5023328;28;20209;-77
2021/03/28 10:22:22;;;;;;;5.65;1.73;;;;;;;;;;5003999;28;20399;-80
2021/03/28 10:24:58;;;;;;;4.85;1.67;;;;;;;;;;5004699;28;20194;-82
2021/03/28 10:27:27;;;;;;;7.15;2.22;;;;;;;;;;5001405;28;20186;-79
2021/03/28 10:29:53;;;;;;;4.70;1.88;;;;;;;;;;5026188;28;20194;-80
2021/03/28 10:32:29;;;;;;;7.33;1.60;;;;;;;;;;5007117;28;20179;-77
2021/03/28 10:35:21;;;;;;;3.63;1.25;;;;;;;;;;5019336;28;20418;-78
2021/03/28 10:38:02;;;;;;;3.40;1.63;;;;;;;;;;4995189;28;20195;-80
2021/03/28 10:40:37;;;;;;;3.80;1.50;;;;;;;;;;5007200;28;20416;-80
2021/03/28 10:43:15;;;;;;;3.65;1.67;;;;;;;;;;5003239;28;20183;-80
2021/03/28 10:45:57;;;;;;;3.75;1.40;;;;;;;;;;4997304;28;20199;-81
2021/03/28 10:48:41;;;;;;;9.05;1.90;;;;;;;;;;4987224;28;20215;-82
2021/03/28 10:51:39;;;;;;;5.72;1.95;;;;;;;;;;4997405;28;20210;-86
2021/03/28 10:54:15;;;;;;;4.55;1.77;;;;;;;;;;5027498;28;20193;-76
2021/03/28 10:56:58;;;;;;;5.88;2.20;;;;;;;;;;5007439;28;20936;-83
2021/03/28 10:59:43;;;;;;;4.00;1.60;;;;;;;;;;4989420;28;20184;-81
2021/03/28 11:02:18;;;;;;;3.45;1.60;;;;;;;;;;4997764;28;20201;-81
2021/03/28 11:04:49;;;;;;;2.72;1.70;;;;;;;;;;5020289;28;20192;-81
2021/03/28 11:07:15;;;;;;;3.78;1.65;;;;;;;;;;5004766;28;20193;-82
2021/03/28 11:09:53;;;;;;;3.77;1.80;;;;;;;;;;5006082;28;20176;-78
2021/03/28 11:12:33;;;;;;;3.63;2.10;;;;;;;;;;5009578;28;20827;-85
2021/03/28 11:15:10;;;;;;;2.25;1.88;;;;;;;;;;5013852;28;20206;-81
2021/03/28 11:17:56;;;;;;;9.38;2.30;;;;;;;;;;5000532;28;20197;-80
2021/03/28 11:20:25;;;;;;;5.47;3.15;;;;;;;;;;5001245;28;20214;-80
2021/03/28 11:23:00;;;;;;;5.15;2.53;;;;;;;;;;4998879;28;20174;-81
2021/03/28 11:25:26;;;;;;;3.42;1.80;;;;;;;;;;5004300;28;20266;-79
2021/03/28 11:27:55;;;;;;;4.60;1.90;;;;;;;;;;4997923;28;20618;-81
2021/03/28 11:30:34;;;;;;;4.05;2.10;;;;;;;;;;5000295;28;20253;-83
2021/03/28 11:33:03;;;;;;;6.80;1.63;;;;;;;;;;5011712;28;20186;-77
2021/03/28 11:35:35;;;;;;;8.70;3.67;;;;;;;;;;5006821;28;20190;-81
2021/03/28 11:38:04;;;;;;;4.10;3.13;;;;;;;;;;5002888;28;20167;-80
2021/03/28 11:40:32;;;;;;;7.72;2.30;;;;;;;;;;4993294;28;20242;-84
2021/03/28 11:43:18;;;;;;;4.95;2.65;;;;;;;;;;4993657;28;20179;-80
2021/03/28 11:45:52;;;;;;;6.00;2.28;;;;;;;;;;4966827;28;20189;-80
2021/03/28 11:48:23;;;;;;;3.72;2.10;;;;;;;;;;4958801;28;20196;-81
2021/03/28 11:50:50;;;;;;;4.20;1.55;;;;;;;;;;4943527;29;20197;-83
2021/03/28 11:53:22;;;;;;;7.32;2.05;;;;;;;;;;4960554;28;20231;-81
2021/03/28 11:55:56;;;;;;;3.42;1.92;;;;;;;;;;4963743;28;20216;-84
2021/03/28 11:58:31;;;;;;;4.30;1.60;;;;;;;;;;4969386;28;20191;-81
2021/03/28 12:00:58;;;;;;;2.60;1.83;;;;;;;;;;4950571;28;20208;-81
2021/03/28 12:03:27;;;;;;;3.42;1.73;;;;;;;;;;4945505;29;20317;-81
2021/03/28 12:05:55;;;;;;;3.88;1.70;;;;;;;;;;4975201;28;20222;-81
2021/03/28 12:08:23;;;;;;;3.23;1.97;;;;;;;;;;4964651;28;20216;-80
2021/03/28 12:10:49;;;;;;;2.80;1.57;;;;;;;;;;4971730;28;20481;-82
2021/03/28 12:13:33;;;;;;;2.60;2.00;;;;;;;;;;4946144;29;20502;-82
2021/03/28 12:16:01;;;;;;;3.60;1.77;;;;;;;;;;4964881;28;20544;-80
2021/03/28 12:18:28;;;;;;;3.93;1.70;;;;;;;;;;4965309;28;20448;-81
2021/03/28 12:21:03;;;;;;;6.10;2.30;;;;;;;;;;4956199;28;20462;-81
2021/03/28 12:23:31;;;;;;;7.10;4.70;;;;;;;;;;5001289;28;20442;-81
2021/03/28 12:26:08;;;;;;;10.20;6.20;;;;;;;;;;4997736;28;20445;-82
2021/03/28 12:28:47;;;;;;;3.90;2.10;;;;;;;;;;5011799;28;20927;-82
2021/03/28 12:31:33;;;;;;;5.27;2.10;;;;;;;;;;5002149;28;20416;-83
2021/03/28 12:34:05;;;;;;;4.83;2.07;;;;;;;;;;5000631;28;20426;-81
2021/03/28 12:36:47;;;;;;;3.93;1.93;;;;;;;;;;4997164;28;20419;-82
2021/03/28 12:39:15;;;;;;;3.53;2.10;;;;;;;;;;5015618;28;20432;-81
2021/03/28 12:42:01;;;;;;;5.67;1.60;;;;;;;;;;5010925;28;20977;-84
2021/03/28 12:44:29;;;;;;;4.37;1.60;;;;;;;;;;5014889;28;20933;-82
2021/03/28 12:46:57;;;;;;;4.60;1.90;;;;;;;;;;5010103;28;20447;-81
2021/03/28 12:49:31;;;;;;;4.10;1.77;;;;;;;;;;5006014;28;20504;-79
2021/03/28 12:52:06;;;;;;;3.97;1.53;;;;;;;;;;5005783;28;20495;-79
2021/03/28 12:54:35;;;;;;;3.73;2.43;;;;;;;;;;5009150;28;20515;-79
2021/03/28 12:57:24;;;;;;;4.30;1.80;;;;;;;;;;5012034;28;20435;-82
2021/03/28 12:59:50;;;;;;;3.90;2.07;;;;;;;;;;5004986;28;20457;-81
2021/03/28 13:02:33;;;;;;;3.13;1.80;;;;;;;;;;4996698;28;20948;-80
2021/03/28 13:05:00;;;;;;;4.47;1.73;;;;;;;;;;5000349;28;20441;-82
2021/03/28 13:07:47;;;;;;;3.27;1.90;;;;;;;;;;4999635;28;20504;-79
2021/03/28 13:10:24;;;;;;;2.80;1.70;;;;;;;;;;4995171;28;20527;-81
2021/03/28 13:12:55;;;;;;;3.00;1.80;;;;;;;;;;4999287;28;20524;-81
2021/03/28 13:15:23;;;;;;;3.50;1.90;;;;;;;;;;5004063;28;20952;-81
2021/03/28 13:18:01;;;;;;;3.47;1.67;;;;;;;;;;5004032;28;20501;-77
2021/03/28 13:20:31;;;;;;;3.60;1.70;;;;;;;;;;5004056;28;20475;-84
2021/03/28 13:23:16;;;;;;;3.43;1.40;;;;;;;;;;5003369;28;20414;-80
2021/03/28 13:25:42;;;;;;;3.93;1.90;;;;;;;;;;5007689;28;20433;-83
2021/03/28 13:28:11;;;;;;;6.47;2.87;;;;;;;;;;5000426;28;20530;-84
2021/03/28 13:30:38;;;;;;;3.17;2.13;;;;;;;;;;5002356;28;20448;-85
2021/03/28 13:33:24;;;;;;;2.60;1.37;;;;;;;;;;5018943;28;20442;-81
2021/03/28 13:35:53;;;;;;;2.20;1.80;;;;;;;;;;5001812;28;20446;-81
2021/03/28 13:38:25;;;;;;;4.20;2.10;;;;;;;;;;5002166;28;20430;-81
2021/03/28 13:40:52;;;;;;;1.83;1.30;;;;;;;;;;5010440;28;20465;-82
2021/03/28 13:43:21;;;;;;;3.30;1.80;;;;;;;;;;5001038;28;20439;-82
2021/03/28 13:45:47;;;;;;;4.63;1.90;;;;;;;;;;5000138;28;20435;-83
2021/03/28 13:48:13;;;;;;;3.03;1.60;;;;;;;;;;5004463;28;20441;-80
2021/03/28 13:50:48;;;;;;;1.83;1.27;;;;;;;;;;5004911;28;20540;-82
2021/03/28 13:53:17;;;;;;;4.70;1.70;;;;;;;;;;5001185;28;20409;-83
2021/03/28 13:55:45;;;;;;;4.83;2.43;;;;;;;;;;5021667;28;20440;-84
2021/03/28 13:58:24;;;;;;;2.40;1.63;;;;;;;;;;4998787;28;20445;-80
2021/03/28 14:00:51;;;;;;;4.00;1.43;;;;;;;;;;4998310;28;20563;-81
2021/03/28 14:03:32;;;;;;;5.30;2.27;;;;;;;;;;5007269;28;20778;-81
2021/03/28 14:06:02;;;;;;;4.13;1.60;;;;;;;;;;5009807;28;20980;-82
2021/03/28 14:08:28;;;;;;;4.60;1.83;;;;;;;;;;4993975;28;20458;-81
2021/03/28 14:10:59;;;;;;;5.57;2.00;;;;;;;;;;5001891;28;20472;-80
2021/03/28 14:13:28;;;;;;;2.60;1.70;;;;;;;;;;5002472;28;20523;-80
2021/03/28 14:16:00;;;;;;;3.87;1.90;;;;;;;;;;5001831;28;20438;-80
2021/03/28 14:18:42;;;;;;;2.90;1.93;;;;;;;;;;4998262;28;20489;-79
2021/03/28 14:21:11;;;;;;;4.60;1.50;;;;;;;;;;4999057;28;20473;-81
2021/03/28 14:23:53;;;;;;;3.07;1.53;;;;;;;;;;5006654;28;20463;-80
2021/03/28 14:26:22;;;;;;;2.50;1.63;;;;;;;;;;5000121;28;20433;-78
2021/03/28 14:28:49;;;;;;;2.30;1.40;;;;;;;;;;5002649;28;20455;-78
2021/03/28 14:31:20;;;;;;;3.17;1.47;;;;;;;;;;4997943;28;20797;-80
2021/03/28 14:33:46;;;;;;;2.40;1.40;;;;;;;;;;4999467;28;20454;-80
2021/03/28 14:36:24;;;;;;;3.70;1.53;;;;;;;;;;5002140;28;20496;-80
2021/03/28 14:39:28;;;;;;;3.10;1.50;;;;;;;;;;5001115;28;20473;-79
2021/03/28 14:42:13;;;;;;;2.00;1.33;;;;;;;;;;4975156;28;20469;-79
2021/03/28 14:44:48;;;;;;;2.95;1.70;;;;;;;;;;4980030;28;20443;-79
2021/03/28 14:47:32;;;;;;;8.25;1.90;;;;;;;;;;4980261;28;20224;-80
2021/03/28 14:50:04;;;;;;;3.72;1.73;;;;;;;;;;4962940;28;20233;-76
2021/03/28 14:52:38;;;;;;;5.75;2.63;;;;;;;;;;4979992;28;20206;-82
2021/03/28 14:55:24;;;;;;;5.35;1.95;;;;;;;;;;4978083;28;20701;-83
2021/03/28 14:58:18;;;;;;;2.45;1.45;;;;;;;;;;4977646;28;20189;-81
2021/03/28 15:00:49;;;;;;;3.70;1.55;;;;;;;;;;4976062;28;20654;-83
2021/03/28 15:03:18;;;;;;;6.20;1.90;;;;;;;;;;4974069;28;20195;-83
2021/03/28 15:05:59;;;;;;;5.00;1.40;;;;;;;;;;4961459;28;20200;-83
2021/03/28 15:08:31;;;;;;;5.20;1.70;;;;;;;;;;4965355;28;20621;-83
2021/03/28 15:10:59;;;;;;;3.38;1.40;;;;;;;;;;4989956;28;20217;-84
2021/03/28 15:13:46;;;;;;;5.03;1.33;;;;;;;;;;4999077;28;20278;-79
2021/03/28 15:16:21;;;;;;;2.85;1.60;;;;;;;;;;5004889;28;20193;-83
2021/03/28 15:18:47;;;;;;;2.97;1.58;;;;;;;;;;5004187;28;20238;-81
2021/03/28 15:21:36;;;;;;;2.75;1.75;;;;;;;;;;5026920;28;20668;-82
2021/03/28 15:24:11;;;;;;;3.88;1.25;;;;;;;;;;5001268;28;20242;-80
2021/03/28 15:26:55;;;;;;;4.90;1.52;;;;;;;;;;4998394;28;20193;-83
2021/03/28 15:29:25;;;;;;;3.53;1.90;;;;;;;;;;5026953;28;20221;-81
2021/03/28 15:31:57;;;;;;;6.40;1.77;;;;;;;;;;5017872;28;20183;-79
2021/03/28 15:34:44;;;;;;;3.35;1.63;;;;;;;;;;5004844;28;20190;-81
2021/03/28 15:37:29;;;;;;;2.78;1.45;;;;;;;;;;5004000;28;20199;-81